createdAt,value
2022-08-23T00:01:28.429Z,2.95
2022-08-23T00:04:01.610Z,2.83
2022-08-23T00:06:29.871Z,2.97
2022-08-23T00:08:57.441Z,2.87
2022-08-23T00:11:35.643Z,3.50
2022-08-23T00:14:11.130Z,3.40
2022-08-23T00:16:39.882Z,3.05
2022-08-23T00:19:09.004Z,3.30
2022-08-23T00:21:38.498Z,2.60
2022-08-23T00:24:07.586Z,3.08
2022-08-23T00:26:56.021Z,3.00
2022-08-23T00:29:38.196Z,3.60
2022-08-23T00:32:07.925Z,3.45
2022-08-23T00:34:36.875Z,3.35
2022-08-23T00:37:05.236Z,3.10
2022-08-23T00:39:33.141Z,3.25
2022-08-23T00:42:31.355Z,3.72
2022-08-23T00:45:20.447Z,4.07
2022-08-23T00:47:48.447Z,3.70
2022-08-23T00:50:32.848Z,3.60
2022-08-23T00:53:15.378Z,4.05
2022-08-23T00:55:45.667Z,3.60
2022-08-23T00:58:14.752Z,3.62
2022-08-23T01:00:42.396Z,4.68
2022-08-23T01:03:11.454Z,3.97
2022-08-23T01:05:46.362Z,4.40
2022-08-23T01:08:13.779Z,4.35
2022-08-23T01:10:50.090Z,4.55
2022-08-23T01:13:40.173Z,3.85
2022-08-23T01:16:14.130Z,3.70
2022-08-23T01:18:42.406Z,4.22
2022-08-23T01:21:25.458Z,4.35
2022-08-23T01:23:56.429Z,4.65
2022-08-23T01:26:25.224Z,4.93
2022-08-23T01:28:54.166Z,4.50
2022-08-23T01:31:22.760Z,4.57
2022-08-23T01:34:02.152Z,4.53
2022-08-23T01:36:30.427Z,4.60
2022-08-23T01:38:58.305Z,4.53
2022-08-23T01:41:26.247Z,5.10
2022-08-23T01:43:53.665Z,4.60
2022-08-23T01:46:23.548Z,4.68
2022-08-23T01:48:54.526Z,4.80
2022-08-23T01:51:22.801Z,4.75
2022-08-23T01:53:50.797Z,4.70
2022-08-23T01:56:38.101Z,4.87
2022-08-23T01:59:12.202Z,5.10
2022-08-23T02:01:40.222Z,4.95
2022-08-23T02:04:08.073Z,5.15
2022-08-23T02:06:35.490Z,5.07
2022-08-23T02:09:04.756Z,5.22
2022-08-23T02:11:36.088Z,4.82
2022-08-23T02:14:07.648Z,5.32
2022-08-23T02:16:39.410Z,5.50
2022-08-23T02:19:11.818Z,6.28
2022-08-23T02:21:40.531Z,6.10
2022-08-23T02:24:31.669Z,5.72
2022-08-23T02:27:02.245Z,4.90
2022-08-23T02:29:30.825Z,6.12
2022-08-23T02:31:59.906Z,5.32
2022-08-23T02:34:40.613Z,5.25
2022-08-23T02:37:10.184Z,5.80
2022-08-23T02:39:38.774Z,6.53
2022-08-23T02:42:07.815Z,5.47
2022-08-23T02:44:39.821Z,5.55
2022-08-23T02:47:08.976Z,5.80
2022-08-23T02:49:36.710Z,5.60
2022-08-23T02:52:06.610Z,5.78
2022-08-23T02:54:35.866Z,5.90
2022-08-23T02:57:03.599Z,5.65
2022-08-23T02:59:31.844Z,5.35
2022-08-23T03:01:59.442Z,5.25
2022-08-23T03:04:27.603Z,5.75
2022-08-23T03:06:55.512Z,5.00
2022-08-23T03:09:23.077Z,4.47
2022-08-23T03:11:50.525Z,5.60
2022-08-23T03:14:18.783Z,5.28
2022-08-23T03:16:46.221Z,5.50
2022-08-23T03:19:13.658Z,5.37
2022-08-23T03:21:43.442Z,4.85
2022-08-23T03:24:12.152Z,5.22
2022-08-23T03:26:44.567Z,5.15
2022-08-23T03:29:13.323Z,5.05
2022-08-23T03:31:43.649Z,5.10
2022-08-23T03:34:12.263Z,5.43
2022-08-23T03:36:39.969Z,5.45
2022-08-23T03:39:07.445Z,5.50
2022-08-23T03:41:35.305Z,4.75
2022-08-23T03:44:03.233Z,5.00
2022-08-23T03:46:34.039Z,5.30
2022-08-23T03:49:02.660Z,5.00
2022-08-23T03:51:31.528Z,4.90
2022-08-23T03:53:59.135Z,4.60
2022-08-23T03:56:26.684Z,4.78
2022-08-23T03:58:54.414Z,4.62
2022-08-23T04:01:26.465Z,4.37
2022-08-23T04:03:59.875Z,4.20
2022-08-23T04:06:28.473Z,4.18
2022-08-23T04:08:56.414Z,4.20
2022-08-23T04:11:24.270Z,5.07
2022-08-23T04:13:52.354Z,5.90
2022-08-23T04:16:20.208Z,4.90
2022-08-23T04:18:48.452Z,4.93
2022-08-23T04:21:18.822Z,4.93
2022-08-23T04:23:46.802Z,5.60
2022-08-23T04:26:14.663Z,5.22
2022-08-23T04:28:42.268Z,5.20
2022-08-23T04:31:10.284Z,5.90
2022-08-23T04:33:40.554Z,6.37
2022-08-23T04:36:09.334Z,5.60
2022-08-23T04:38:37.812Z,6.28
2022-08-23T04:41:24.191Z,5.30
2022-08-23T04:43:54.233Z,5.70
2022-08-23T04:46:21.806Z,6.35
2022-08-23T04:48:50.626Z,6.55
2022-08-23T04:51:18.660Z,5.80
2022-08-23T04:53:46.720Z,6.35
2022-08-23T04:56:15.886Z,5.80
2022-08-23T04:58:45.130Z,5.68
2022-08-23T05:01:16.058Z,6.60
2022-08-23T05:03:44.329Z,6.43
2022-08-23T05:06:12.556Z,6.25
2022-08-23T05:08:40.199Z,5.93
2022-08-23T05:11:09.475Z,6.07
2022-08-23T05:13:38.196Z,7.22
2022-08-23T05:16:06.518Z,6.10
2022-08-23T05:18:34.599Z,6.47
2022-08-23T05:21:02.152Z,6.93
2022-08-23T05:23:32.273Z,6.10
2022-08-23T05:26:01.025Z,5.80
2022-08-23T05:28:31.347Z,5.22
2022-08-23T05:31:07.044Z,6.37
2022-08-23T05:33:40.839Z,5.70
2022-08-23T05:36:09.957Z,5.37
2022-08-23T05:38:38.201Z,6.32
2022-08-23T05:41:07.087Z,5.68
2022-08-23T05:43:35.309Z,5.47
2022-08-23T05:46:14.105Z,5.22
2022-08-23T05:48:47.007Z,5.25
2022-08-23T05:51:21.134Z,5.70
2022-08-23T05:53:50.237Z,6.07
2022-08-23T05:56:20.783Z,5.97
2022-08-23T05:58:49.113Z,6.07
2022-08-23T06:01:19.482Z,6.15
2022-08-23T06:03:48.405Z,6.68
2022-08-23T06:06:16.502Z,6.43
2022-08-23T06:08:46.438Z,5.75
2022-08-23T06:11:21.351Z,6.35
2022-08-23T06:13:51.007Z,6.03
2022-08-23T06:16:21.756Z,6.15
2022-08-23T06:18:49.581Z,5.75
2022-08-23T06:21:18.424Z,5.87
2022-08-23T06:23:48.552Z,6.40
2022-08-23T06:26:17.358Z,5.75
2022-08-23T06:28:50.798Z,5.57
2022-08-23T06:31:40.782Z,6.28
2022-08-23T06:34:24.554Z,5.90
2022-08-23T06:36:57.539Z,6.40
2022-08-23T06:39:29.798Z,6.10
2022-08-23T06:42:00.825Z,6.00
2022-08-23T06:44:29.196Z,6.10
2022-08-23T06:46:57.575Z,6.70
2022-08-23T06:49:27.719Z,6.15
2022-08-23T06:52:00.057Z,6.55
2022-08-23T06:54:33.789Z,6.53
2022-08-23T06:57:02.331Z,5.35
2022-08-23T06:59:30.113Z,5.57
2022-08-23T07:02:03.822Z,6.57
2022-08-23T07:04:39.352Z,6.62
2022-08-23T07:07:11.317Z,5.35
2022-08-23T07:09:41.036Z,5.82
2022-08-23T07:12:09.029Z,6.62
2022-08-23T07:14:38.400Z,6.05
2022-08-23T07:17:06.510Z,6.53
2022-08-23T07:19:35.009Z,6.72
2022-08-23T07:22:04.306Z,5.62
2022-08-23T07:24:33.788Z,6.05
2022-08-23T07:27:07.078Z,6.40
2022-08-23T07:29:37.927Z,6.15
2022-08-23T07:32:06.152Z,6.50
2022-08-23T07:34:34.168Z,6.82
2022-08-23T07:37:02.433Z,6.37
2022-08-23T07:39:31.824Z,6.12
2022-08-23T07:42:00.821Z,6.22
2022-08-23T07:44:29.121Z,6.25
2022-08-23T07:46:57.484Z,5.75
2022-08-23T07:49:29.228Z,5.93
2022-08-23T07:51:58.934Z,5.87
2022-08-23T07:54:28.422Z,5.82
2022-08-23T07:56:56.292Z,5.50
2022-08-23T07:59:24.472Z,6.18
2022-08-23T08:01:52.174Z,5.93
2022-08-23T08:04:19.894Z,5.72
2022-08-23T08:07:04.890Z,5.70
2022-08-23T08:09:38.017Z,6.57
2022-08-23T08:12:05.883Z,5.95
2022-08-23T08:14:33.891Z,5.70
2022-08-23T08:17:04.027Z,5.78
2022-08-23T08:19:32.886Z,5.20
2022-08-23T08:22:03.052Z,5.53
2022-08-23T08:24:32.070Z,4.97
2022-08-23T08:27:01.111Z,4.97
2022-08-23T08:29:28.561Z,5.25
2022-08-23T08:31:56.540Z,5.20
2022-08-23T08:34:24.009Z,4.70
2022-08-23T08:36:58.367Z,4.68
2022-08-23T08:39:31.544Z,4.70
2022-08-23T08:42:08.311Z,4.25
2022-08-23T08:44:46.164Z,4.85
2022-08-23T08:47:35.014Z,4.50
2022-08-23T08:50:05.814Z,4.75
2022-08-23T08:52:36.784Z,4.90
2022-08-23T08:55:11.268Z,3.92
2022-08-23T08:57:42.363Z,4.97
2022-08-23T09:00:34.887Z,4.07
2022-08-23T09:03:11.866Z,3.97
2022-08-23T09:05:49.471Z,3.40
2022-08-23T09:08:28.979Z,4.78
2022-08-23T09:11:13.985Z,4.70
2022-08-23T09:13:53.790Z,5.12
2022-08-23T09:16:45.994Z,4.22
2022-08-23T09:19:13.725Z,4.47
2022-08-23T09:21:44.451Z,4.22
2022-08-23T09:24:13.448Z,4.53
2022-08-23T09:26:43.562Z,4.45
2022-08-23T09:29:25.071Z,4.80
2022-08-23T09:31:58.391Z,4.40
2022-08-23T09:34:32.406Z,4.43
2022-08-23T09:39:41.102Z,4.25
2022-08-23T09:42:27.217Z,4.15
2022-08-23T09:44:54.691Z,4.65
2022-08-23T09:47:33.308Z,4.68
2022-08-23T09:50:17.548Z,4.45
2022-08-23T09:52:47.349Z,3.70
2022-08-23T09:55:35.088Z,3.85
2022-08-23T09:58:06.962Z,4.32
2022-08-23T10:00:36.415Z,3.67
2022-08-23T10:03:40.498Z,3.60
2022-08-23T10:06:11.563Z,4.12
2022-08-23T10:08:55.357Z,3.92
2022-08-23T10:11:30.656Z,4.10
2022-08-23T10:13:58.458Z,4.12
2022-08-23T10:16:37.637Z,3.60
2022-08-23T10:19:43.873Z,4.55
2022-08-23T10:22:21.742Z,4.15
2022-08-23T10:25:05.595Z,3.40
2022-08-23T10:28:17.353Z,3.90
2022-08-23T10:30:50.878Z,3.80
2022-08-23T10:33:29.550Z,3.80
2022-08-23T10:36:07.475Z,3.53
2022-08-23T10:38:41.122Z,4.32
2022-08-23T10:41:22.032Z,3.22
2022-08-23T10:44:13.313Z,3.92
2022-08-23T10:46:56.805Z,4.03
2022-08-23T10:49:26.193Z,3.60
2022-08-23T10:51:53.999Z,3.90
2022-08-23T10:54:46.085Z,4.00
2022-08-23T10:57:20.466Z,4.50
2022-08-23T11:02:31.430Z,3.75
2022-08-23T11:07:37.853Z,3.75
2022-08-23T11:10:05.428Z,3.70
2022-08-23T11:12:37.312Z,4.07
2022-08-23T11:15:20.974Z,3.53
2022-08-23T11:17:56.097Z,3.53
2022-08-23T11:20:49.169Z,4.18
2022-08-23T11:23:36.103Z,3.58
2022-08-23T11:26:07.303Z,4.00
2022-08-23T11:28:39.946Z,3.80
2022-08-23T11:31:07.782Z,3.78
2022-08-23T11:34:03.692Z,3.78
2022-08-23T11:36:33.615Z,4.65
2022-08-23T11:39:06.631Z,3.97
2022-08-23T11:41:37.290Z,4.32
2022-08-23T11:44:07.459Z,4.25
2022-08-23T11:46:59.325Z,3.67
2022-08-23T11:49:30.583Z,4.62
2022-08-23T11:52:43.563Z,4.10
2022-08-23T11:55:25.928Z,4.65
2022-08-23T11:58:14.347Z,4.60
2022-08-23T12:01:07.827Z,4.10
2022-08-23T12:04:00.353Z,3.72
2022-08-23T12:06:51.254Z,4.15
2022-08-23T12:09:25.568Z,4.35
2022-08-23T12:11:52.921Z,4.80
2022-08-23T12:14:32.783Z,4.07
2022-08-23T12:17:04.049Z,4.28
2022-08-23T12:19:40.955Z,4.07
2022-08-23T12:22:17.781Z,4.15
2022-08-23T12:24:53.122Z,3.83
2022-08-23T12:27:32.430Z,3.95
2022-08-23T12:30:23.615Z,4.57
2022-08-23T12:32:59.456Z,3.80
2022-08-23T12:35:30.366Z,3.55
2022-08-23T12:38:09.932Z,3.55
2022-08-23T12:40:50.388Z,3.70
2022-08-23T12:43:22.825Z,3.12
2022-08-23T12:46:01.809Z,3.62
2022-08-23T12:48:33.907Z,3.37
2022-08-23T12:51:07.386Z,3.57
2022-08-23T12:53:44.064Z,3.55
2022-08-23T12:56:15.740Z,3.80
2022-08-23T12:58:48.828Z,3.12
2022-08-23T13:01:36.691Z,3.58
2022-08-23T13:06:40.077Z,3.92
2022-08-23T13:09:30.277Z,4.25
2022-08-23T13:11:58.999Z,3.87
2022-08-23T13:14:33.393Z,4.68
2022-08-23T13:17:27.249Z,4.62
2022-08-23T13:20:21.729Z,4.10
2022-08-23T13:22:59.088Z,3.97
2022-08-23T13:25:32.358Z,3.70
2022-08-23T13:28:21.883Z,4.00
2022-08-23T13:31:08.112Z,3.95
2022-08-23T13:33:37.219Z,4.03
2022-08-23T13:36:15.273Z,3.62
2022-08-23T13:38:44.198Z,3.62
2022-08-23T13:41:27.493Z,3.95
2022-08-23T13:43:55.394Z,3.95
2022-08-23T13:46:28.756Z,3.60
2022-08-23T13:49:09.206Z,4.18
2022-08-23T13:51:39.053Z,4.05
2022-08-23T13:54:13.059Z,3.78
2022-08-23T13:56:50.446Z,3.50
2022-08-23T13:59:31.358Z,3.72
2022-08-23T14:02:01.659Z,3.35
2022-08-23T14:04:29.423Z,3.40
2022-08-23T14:06:56.815Z,3.42
2022-08-23T14:09:24.220Z,3.58
2022-08-23T14:11:55.674Z,3.75
2022-08-23T14:14:24.372Z,3.72
2022-08-23T14:16:54.441Z,3.75
2022-08-23T14:22:09.589Z,3.65
2022-08-23T14:24:37.110Z,3.15
2022-08-23T14:27:04.559Z,3.20
2022-08-23T14:29:32.218Z,3.50
2022-08-23T14:31:59.820Z,3.25
2022-08-23T14:34:28.867Z,3.47
2022-08-23T14:39:44.779Z,3.67
2022-08-23T14:42:13.224Z,3.55
2022-08-23T14:44:42.129Z,3.60
2022-08-23T14:47:09.512Z,3.20
2022-08-23T14:49:38.561Z,3.33
2022-08-23T14:52:06.191Z,3.50
2022-08-23T14:54:35.975Z,3.40
2022-08-23T14:57:03.790Z,3.10
2022-08-23T14:59:31.167Z,3.67
2022-08-23T15:01:58.799Z,3.00
2022-08-23T15:04:34.077Z,3.40
2022-08-23T15:07:19.785Z,3.58
2022-08-23T15:09:48.932Z,3.40
2022-08-23T15:15:12.297Z,3.53
2022-08-23T15:17:52.332Z,3.12
2022-08-23T15:20:25.062Z,3.40
2022-08-23T15:22:55.899Z,3.42
2022-08-23T15:25:25.657Z,3.00
2022-08-23T15:27:53.073Z,3.35
2022-08-23T15:30:22.051Z,3.00
2022-08-23T15:32:52.647Z,3.40
2022-08-23T15:35:25.760Z,3.05
2022-08-23T15:37:55.980Z,3.42
2022-08-23T15:40:23.797Z,2.95
2022-08-23T15:42:51.351Z,3.40
2022-08-23T15:45:19.599Z,3.30
2022-08-23T15:47:51.532Z,3.53
2022-08-23T15:50:21.766Z,3.42
2022-08-23T15:52:49.497Z,2.87
2022-08-23T15:55:17.698Z,3.22
2022-08-23T15:57:47.908Z,3.28
2022-08-23T16:00:17.496Z,2.90
2022-08-23T16:03:15.937Z,2.92
2022-08-23T16:05:33.084Z,3.47
2022-08-23T16:08:00.767Z,3.60
2022-08-23T16:10:28.556Z,4.05
2022-08-23T16:12:56.073Z,3.67
2022-08-23T16:15:23.778Z,3.50
2022-08-23T16:17:51.209Z,2.70
2022-08-23T16:20:18.679Z,2.50
2022-08-23T16:22:46.322Z,2.85
2022-08-23T16:25:13.707Z,2.90
2022-08-23T16:27:41.252Z,2.72
2022-08-23T16:30:09.860Z,3.03
2022-08-23T16:32:40.457Z,3.15
2022-08-23T16:35:08.328Z,3.30
2022-08-23T16:37:36.497Z,3.28
2022-08-23T16:40:05.865Z,3.17
2022-08-23T16:42:33.294Z,3.33
2022-08-23T16:45:01.017Z,3.12
2022-08-23T16:47:29.192Z,3.67
2022-08-23T16:49:56.562Z,2.95
2022-08-23T16:52:24.839Z,2.78
2022-08-23T16:55:07.235Z,3.08
2022-08-23T16:57:35.256Z,3.47
2022-08-23T17:00:06.834Z,2.97
2022-08-23T17:02:36.772Z,3.12
2022-08-23T17:05:06.801Z,2.83
2022-08-23T17:07:34.586Z,2.87
2022-08-23T17:10:02.485Z,3.05
2022-08-23T17:12:30.086Z,3.33
2022-08-23T17:14:57.549Z,2.87
2022-08-23T17:17:25.392Z,3.25
2022-08-23T17:19:52.993Z,3.03
2022-08-23T17:22:20.446Z,3.15
2022-08-23T17:24:48.238Z,2.75
2022-08-23T17:27:20.762Z,3.28
2022-08-23T17:29:48.507Z,3.08
2022-08-23T17:32:18.997Z,2.80
2022-08-23T17:34:46.428Z,3.12
2022-08-23T17:37:20.349Z,2.67
2022-08-23T17:39:48.623Z,3.10
2022-08-23T17:42:17.669Z,2.35
2022-08-23T17:44:45.350Z,3.12
2022-08-23T17:47:15.813Z,3.22
2022-08-23T17:49:44.990Z,2.97
2022-08-23T17:52:12.919Z,2.67
2022-08-23T17:54:41.165Z,3.20
2022-08-23T17:57:10.309Z,2.97
2022-08-23T17:59:38.211Z,2.70
2022-08-23T18:02:05.728Z,3.00
2022-08-23T18:04:34.099Z,3.22
2022-08-23T18:07:02.060Z,2.75
2022-08-23T18:09:29.684Z,2.45
2022-08-23T18:11:57.500Z,3.00
2022-08-23T18:14:25.263Z,2.70
2022-08-23T18:16:52.951Z,2.85
2022-08-23T18:19:21.661Z,2.65
2022-08-23T18:21:52.474Z,2.60
2022-08-23T18:24:20.879Z,2.92
2022-08-23T18:27:07.754Z,2.87
2022-08-23T18:29:36.632Z,2.90
2022-08-23T18:32:07.295Z,3.05
2022-08-23T18:34:36.088Z,2.55
2022-08-23T18:37:04.545Z,3.00
2022-08-23T18:39:32.445Z,3.10
2022-08-23T18:42:01.581Z,2.87
2022-08-23T18:44:29.915Z,2.87
2022-08-23T18:46:57.789Z,2.40
2022-08-23T18:49:25.539Z,2.75
2022-08-23T18:51:53.583Z,2.50
2022-08-23T18:54:21.276Z,2.60
2022-08-23T18:56:49.026Z,2.80
2022-08-23T18:59:17.190Z,2.40
2022-08-23T19:01:45.703Z,2.67
2022-08-23T19:04:14.066Z,2.60
2022-08-23T19:06:42.017Z,3.00
2022-08-23T19:09:11.407Z,2.60
2022-08-23T19:11:42.800Z,2.70
2022-08-23T19:14:12.837Z,2.90
2022-08-23T19:16:45.851Z,2.60
2022-08-23T19:19:17.079Z,2.78
2022-08-23T19:21:44.997Z,2.47
2022-08-23T19:24:12.751Z,2.70
2022-08-23T19:26:44.765Z,2.37
2022-08-23T19:29:12.504Z,2.92
2022-08-23T19:31:47.048Z,2.90
2022-08-23T19:36:51.266Z,2.60
2022-08-23T19:39:27.090Z,2.72
2022-08-23T19:41:55.571Z,2.78
2022-08-23T19:44:23.755Z,2.45
2022-08-23T19:46:51.543Z,2.47
2022-08-23T19:49:19.983Z,3.20
2022-08-23T19:51:47.820Z,3.08
2022-08-23T19:54:16.885Z,2.65
2022-08-23T19:56:55.139Z,2.95
2022-08-23T19:59:25.662Z,3.10
2022-08-23T20:01:54.805Z,3.10
2022-08-23T20:04:24.782Z,2.72
2022-08-23T20:06:52.558Z,2.55
2022-08-23T20:09:22.625Z,2.72
2022-08-23T20:11:54.884Z,2.72
2022-08-23T20:14:24.353Z,2.78
2022-08-23T20:16:53.522Z,3.12
2022-08-23T20:19:21.604Z,2.92
2022-08-23T20:21:49.550Z,2.40
2022-08-23T20:24:28.800Z,2.83
2022-08-23T20:27:06.114Z,2.87
2022-08-23T20:29:33.967Z,2.90
2022-08-23T20:32:07.280Z,2.95
2022-08-23T20:34:37.001Z,2.83
2022-08-23T20:37:05.397Z,2.78
2022-08-23T20:39:33.070Z,2.70
2022-08-23T20:42:00.838Z,3.15
2022-08-23T20:44:28.308Z,3.17
2022-08-23T20:47:00.904Z,2.85
2022-08-23T20:49:31.569Z,2.67
2022-08-23T20:51:58.936Z,2.37
2022-08-23T20:54:26.350Z,2.60
2022-08-23T20:56:54.089Z,3.10
2022-08-23T20:59:21.898Z,2.90
2022-08-23T21:01:49.714Z,2.92
2022-08-23T21:04:18.045Z,2.95
2022-08-23T21:06:48.512Z,2.80
2022-08-23T21:09:19.327Z,2.97
2022-08-23T21:11:48.061Z,3.15
2022-08-23T21:14:17.239Z,3.03
2022-08-23T21:16:47.122Z,3.22
2022-08-23T21:19:15.752Z,3.15
2022-08-23T21:21:43.582Z,3.22
2022-08-23T21:24:14.104Z,3.47
2022-08-23T21:26:41.905Z,3.12
2022-08-23T21:29:10.269Z,3.08
2022-08-23T21:31:38.474Z,2.97
2022-08-23T21:34:07.694Z,3.15
2022-08-23T21:36:35.779Z,3.08
2022-08-23T21:39:04.542Z,3.37
2022-08-23T21:41:42.168Z,3.30
2022-08-23T21:44:13.893Z,3.25
2022-08-23T21:46:42.551Z,3.00
2022-08-23T21:49:12.264Z,3.15
2022-08-23T21:51:40.850Z,3.53
2022-08-23T21:54:09.515Z,3.22
2022-08-23T21:56:37.915Z,3.33
2022-08-23T21:59:07.299Z,3.92
2022-08-23T22:01:36.353Z,3.35
2022-08-23T22:04:06.203Z,3.10
2022-08-23T22:06:35.027Z,3.72
2022-08-23T22:09:03.902Z,3.37
2022-08-23T22:11:31.591Z,3.20
2022-08-23T22:13:58.990Z,3.50
2022-08-23T22:16:26.393Z,3.47
2022-08-23T22:18:54.052Z,3.62
2022-08-23T22:21:21.442Z,3.58
2022-08-23T22:23:48.848Z,3.53
2022-08-23T22:26:16.716Z,3.90
2022-08-23T22:28:45.030Z,3.78
2022-08-23T22:31:14.478Z,4.15
2022-08-23T22:33:42.974Z,4.10
2022-08-23T22:36:17.316Z,3.45
2022-08-23T22:38:45.610Z,3.87
2022-08-23T22:41:23.979Z,3.45
2022-08-23T22:43:58.880Z,4.20
2022-08-23T22:46:28.112Z,3.83
2022-08-23T22:48:56.032Z,4.20
2022-08-23T22:51:26.415Z,3.78
2022-08-23T22:53:57.508Z,3.78
2022-08-23T22:56:31.174Z,3.90
2022-08-23T22:58:58.957Z,4.18
2022-08-23T23:01:36.363Z,4.28
2022-08-23T23:04:06.773Z,3.67
2022-08-23T23:06:36.032Z,3.28
2022-08-23T23:09:06.233Z,3.70
2022-08-23T23:11:34.903Z,3.80
2022-08-23T23:14:04.068Z,3.83
2022-08-23T23:16:32.257Z,3.35
2022-08-23T23:19:18.839Z,4.20
2022-08-23T23:21:49.035Z,3.78
2022-08-23T23:24:23.838Z,3.58
2022-08-23T23:26:51.923Z,3.90
2022-08-23T23:29:19.969Z,3.83
2022-08-23T23:31:47.629Z,3.92
2022-08-23T23:34:15.523Z,4.25
2022-08-23T23:36:43.062Z,4.10
2022-08-23T23:39:11.773Z,4.50
2022-08-23T23:41:39.834Z,3.70
2022-08-23T23:44:07.519Z,4.12
2022-08-23T23:46:35.062Z,4.32
2022-08-23T23:49:02.744Z,4.35
2022-08-23T23:51:30.742Z,3.95
2022-08-23T23:53:59.223Z,4.57
2022-08-23T23:56:30.177Z,4.70
2022-08-23T23:58:58.563Z,4.50
